sensor_id;sensor_type;location;lat;lon;timestamp;pressure;altitude;pressure_sealevel;temperature
75811;BMP280;64449;50.016;19.954;2023-12-20T00:02:11;98089.55;;;8.13
75811;BMP280;64449;50.016;19.954;2023-12-20T00:04:36;98092.43;;;8.11
75811;BMP280;64449;50.016;19.954;2023-12-20T00:07:02;98087.48;;;8.08
75811;BMP280;64449;50.016;19.954;2023-12-20T00:09:27;98079.61;;;8.05
75811;BMP280;64449;50.016;19.954;2023-12-20T00:11:52;98078.74;;;8.03
75811;BMP280;64449;50.016;19.954;2023-12-20T00:14:18;98075.39;;;8.01
75811;BMP280;64449;50.016;19.954;2023-12-20T00:16:43;98077.71;;;7.99
75811;BMP280;64449;50.016;19.954;2023-12-20T00:19:09;98072.60;;;7.98
75811;BMP280;64449;50.016;19.954;2023-12-20T00:21:34;98072.71;;;7.95
75811;BMP280;64449;50.016;19.954;2023-12-20T00:23:59;98064.41;;;7.94
75811;BMP280;64449;50.016;19.954;2023-12-20T00:26:25;98068.39;;;7.93
75811;BMP280;64449;50.016;19.954;2023-12-20T00:28:50;98064.71;;;7.92
75811;BMP280;64449;50.016;19.954;2023-12-20T00:31:16;98062.16;;;7.90
75811;BMP280;64449;50.016;19.954;2023-12-20T00:33:41;98056.25;;;7.89
75811;BMP280;64449;50.016;19.954;2023-12-20T00:36:09;98052.15;;;7.87
75811;BMP280;64449;50.016;19.954;2023-12-20T00:38:35;98052.83;;;7.85
75811;BMP280;64449;50.016;19.954;2023-12-20T00:41:00;98046.87;;;7.75
75811;BMP280;64449;50.016;19.954;2023-12-20T00:43:26;98048.68;;;7.68
75811;BMP280;64449;50.016;19.954;2023-12-20T00:45:51;98040.50;;;7.61
75811;BMP280;64449;50.016;19.954;2023-12-20T00:48:17;98040.89;;;7.58
75811;BMP280;64449;50.016;19.954;2023-12-20T00:50:42;98039.17;;;7.54
75811;BMP280;64449;50.016;19.954;2023-12-20T00:53:08;98038.42;;;7.51
75811;BMP280;64449;50.016;19.954;2023-12-20T00:55:33;98039.60;;;7.49
75811;BMP280;64449;50.016;19.954;2023-12-20T00:57:59;98041.41;;;7.47
75811;BMP280;64449;50.016;19.954;2023-12-20T01:00:25;98035.48;;;7.45
75811;BMP280;64449;50.016;19.954;2023-12-20T01:02:50;98032.77;;;7.44
75811;BMP280;64449;50.016;19.954;2023-12-20T01:05:18;98031.27;;;7.43
75811;BMP280;64449;50.016;19.954;2023-12-20T01:07:43;98032.24;;;7.44
75811;BMP280;64449;50.016;19.954;2023-12-20T01:10:08;98026.38;;;7.46
75811;BMP280;64449;50.016;19.954;2023-12-20T01:12:36;98029.96;;;7.46
75811;BMP280;64449;50.016;19.954;2023-12-20T01:15:01;98033.33;;;7.46
75811;BMP280;64449;50.016;19.954;2023-12-20T01:17:27;98035.91;;;7.47
75811;BMP280;64449;50.016;19.954;2023-12-20T01:19:52;98037.59;;;7.47
75811;BMP280;64449;50.016;19.954;2023-12-20T01:22:17;98033.49;;;7.47
75811;BMP280;64449;50.016;19.954;2023-12-20T01:24:43;98027.80;;;7.48
75811;BMP280;64449;50.016;19.954;2023-12-20T01:27:08;98017.10;;;7.49
75811;BMP280;64449;50.016;19.954;2023-12-20T01:29:34;98012.15;;;7.49
75811;BMP280;64449;50.016;19.954;2023-12-20T01:31:59;98014.62;;;7.48
75811;BMP280;64449;50.016;19.954;2023-12-20T01:34:24;98008.83;;;7.47
75811;BMP280;64449;50.016;19.954;2023-12-20T01:36:50;98004.02;;;7.46
75811;BMP280;64449;50.016;19.954;2023-12-20T01:39:17;97999.02;;;7.43
75811;BMP280;64449;50.016;19.954;2023-12-20T01:41:42;97988.27;;;7.42
75811;BMP280;64449;50.016;19.954;2023-12-20T01:44:08;97981.01;;;7.40
75811;BMP280;64449;50.016;19.954;2023-12-20T01:46:33;97975.77;;;7.39
75811;BMP280;64449;50.016;19.954;2023-12-20T01:48:59;97970.84;;;7.38
75811;BMP280;64449;50.016;19.954;2023-12-20T01:51:25;97959.48;;;7.35
75811;BMP280;64449;50.016;19.954;2023-12-20T01:53:52;97955.90;;;7.33
75811;BMP280;64449;50.016;19.954;2023-12-20T01:56:19;97950.46;;;7.30
75811;BMP280;64449;50.016;19.954;2023-12-20T01:58:46;97946.41;;;7.29
75811;BMP280;64449;50.016;19.954;2023-12-20T02:01:12;97948.95;;;7.28
75811;BMP280;64449;50.016;19.954;2023-12-20T02:03:42;97950.13;;;7.26
75811;BMP280;64449;50.016;19.954;2023-12-20T02:06:09;97945.71;;;7.23
75811;BMP280;64449;50.016;19.954;2023-12-20T02:08:35;97935.92;;;7.21
75811;BMP280;64449;50.016;19.954;2023-12-20T02:11:01;97932.20;;;7.17
75811;BMP280;64449;50.016;19.954;2023-12-20T02:13:26;97934.52;;;7.14
75811;BMP280;64449;50.016;19.954;2023-12-20T02:15:52;97934.59;;;7.11
75811;BMP280;64449;50.016;19.954;2023-12-20T02:18:18;97932.91;;;7.09
75811;BMP280;64449;50.016;19.954;2023-12-20T02:20:44;97928.55;;;7.07
75811;BMP280;64449;50.016;19.954;2023-12-20T02:23:09;97925.70;;;7.05
75811;BMP280;64449;50.016;19.954;2023-12-20T02:25:35;97918.27;;;7.04
75811;BMP280;64449;50.016;19.954;2023-12-20T02:28:01;97918.65;;;7.03
75811;BMP280;64449;50.016;19.954;2023-12-20T02:30:27;97911.55;;;7.02
75811;BMP280;64449;50.016;19.954;2023-12-20T02:32:53;97905.83;;;7.02
75811;BMP280;64449;50.016;19.954;2023-12-20T02:35:19;97909.83;;;7.01
75811;BMP280;64449;50.016;19.954;2023-12-20T02:37:44;97910.11;;;7.01
75811;BMP280;64449;50.016;19.954;2023-12-20T02:40:10;97906.59;;;7.00
75811;BMP280;64449;50.016;19.954;2023-12-20T02:42:36;97907.20;;;6.98
75811;BMP280;64449;50.016;19.954;2023-12-20T02:45:01;97903.59;;;6.97
75811;BMP280;64449;50.016;19.954;2023-12-20T02:47:27;97900.35;;;6.96
75811;BMP280;64449;50.016;19.954;2023-12-20T02:49:52;97896.80;;;6.96
75811;BMP280;64449;50.016;19.954;2023-12-20T02:52:18;97893.88;;;6.96
75811;BMP280;64449;50.016;19.954;2023-12-20T02:54:43;97890.02;;;6.96
75811;BMP280;64449;50.016;19.954;2023-12-20T02:57:08;97894.83;;;6.96
75811;BMP280;64449;50.016;19.954;2023-12-20T02:59:34;97903.05;;;6.97
75811;BMP280;64449;50.016;19.954;2023-12-20T03:01:59;97909.52;;;6.96
75811;BMP280;64449;50.016;19.954;2023-12-20T03:04:25;97917.56;;;6.97
75811;BMP280;64449;50.016;19.954;2023-12-20T03:06:50;97920.05;;;6.98
75811;BMP280;64449;50.016;19.954;2023-12-20T03:09:16;97913.83;;;6.99
75811;BMP280;64449;50.016;19.954;2023-12-20T03:11:41;97914.67;;;6.99
75811;BMP280;64449;50.016;19.954;2023-12-20T03:14:07;97914.58;;;6.99
75811;BMP280;64449;50.016;19.954;2023-12-20T03:16:32;97910.42;;;6.98
75811;BMP280;64449;50.016;19.954;2023-12-20T03:18:58;97910.54;;;6.97
75811;BMP280;64449;50.016;19.954;2023-12-20T03:21:24;97908.44;;;6.96
75811;BMP280;64449;50.016;19.954;2023-12-20T03:23:49;97903.16;;;6.97
75811;BMP280;64449;50.016;19.954;2023-12-20T03:26:14;97905.72;;;6.97
75811;BMP280;64449;50.016;19.954;2023-12-20T03:28:40;97902.83;;;6.99
75811;BMP280;64449;50.016;19.954;2023-12-20T03:31:05;97902.40;;;7.00
75811;BMP280;64449;50.016;19.954;2023-12-20T03:33:31;97903.53;;;7.02
75811;BMP280;64449;50.016;19.954;2023-12-20T03:35:56;97905.45;;;7.04
75811;BMP280;64449;50.016;19.954;2023-12-20T03:38:22;97905.42;;;7.05
75811;BMP280;64449;50.016;19.954;2023-12-20T03:40:49;97908.80;;;7.08
75811;BMP280;64449;50.016;19.954;2023-12-20T03:43:15;97905.38;;;7.12
75811;BMP280;64449;50.016;19.954;2023-12-20T03:45:42;97911.05;;;7.17
75811;BMP280;64449;50.016;19.954;2023-12-20T03:48:07;97914.44;;;7.23
75811;BMP280;64449;50.016;19.954;2023-12-20T03:50:33;97912.98;;;7.27
75811;BMP280;64449;50.016;19.954;2023-12-20T03:52:59;97915.95;;;7.33
75811;BMP280;64449;50.016;19.954;2023-12-20T03:55:24;97915.11;;;7.38
75811;BMP280;64449;50.016;19.954;2023-12-20T03:57:49;97920.85;;;7.42
75811;BMP280;64449;50.016;19.954;2023-12-20T04:00:15;97911.98;;;7.46
75811;BMP280;64449;50.016;19.954;2023-12-20T04:02:41;97919.48;;;7.50
75811;BMP280;64449;50.016;19.954;2023-12-20T04:05:08;97914.15;;;7.55
75811;BMP280;64449;50.016;19.954;2023-12-20T04:07:36;97908.39;;;7.60
75811;BMP280;64449;50.016;19.954;2023-12-20T04:10:02;97900.25;;;7.64
75811;BMP280;64449;50.016;19.954;2023-12-20T04:12:29;97903.72;;;7.67
75811;BMP280;64449;50.016;19.954;2023-12-20T04:14:54;97900.52;;;7.70
75811;BMP280;64449;50.016;19.954;2023-12-20T04:17:20;97894.48;;;7.72
75811;BMP280;64449;50.016;19.954;2023-12-20T04:19:48;97896.30;;;7.74
75811;BMP280;64449;50.016;19.954;2023-12-20T04:22:14;97895.20;;;7.74
75811;BMP280;64449;50.016;19.954;2023-12-20T04:24:39;97894.12;;;7.74
75811;BMP280;64449;50.016;19.954;2023-12-20T04:27:04;97896.67;;;7.75
75811;BMP280;64449;50.016;19.954;2023-12-20T04:29:30;97893.02;;;7.75
75811;BMP280;64449;50.016;19.954;2023-12-20T04:31:55;97889.78;;;7.75
75811;BMP280;64449;50.016;19.954;2023-12-20T04:34:22;97890.95;;;7.75
75811;BMP280;64449;50.016;19.954;2023-12-20T04:36:48;97891.79;;;7.76
75811;BMP280;64449;50.016;19.954;2023-12-20T04:39:13;97897.47;;;7.77
75811;BMP280;64449;50.016;19.954;2023-12-20T04:41:40;97900.29;;;7.79
75811;BMP280;64449;50.016;19.954;2023-12-20T04:44:06;97907.76;;;7.81
75811;BMP280;64449;50.016;19.954;2023-12-20T04:46:31;97908.63;;;7.84
75811;BMP280;64449;50.016;19.954;2023-12-20T04:48:57;97906.69;;;7.86
75811;BMP280;64449;50.016;19.954;2023-12-20T04:51:23;97912.36;;;7.89
75811;BMP280;64449;50.016;19.954;2023-12-20T04:53:48;97913.38;;;7.91
75811;BMP280;64449;50.016;19.954;2023-12-20T04:56:13;97916.69;;;7.93
75811;BMP280;64449;50.016;19.954;2023-12-20T04:58:39;97916.47;;;7.94
75811;BMP280;64449;50.016;19.954;2023-12-20T05:01:05;97920.89;;;7.96
75811;BMP280;64449;50.016;19.954;2023-12-20T05:03:32;97921.45;;;7.97
75811;BMP280;64449;50.016;19.954;2023-12-20T05:05:58;97919.07;;;7.97
75811;BMP280;64449;50.016;19.954;2023-12-20T05:08:23;97912.80;;;8.00
75811;BMP280;64449;50.016;19.954;2023-12-20T05:10:49;97905.23;;;8.00
75811;BMP280;64449;50.016;19.954;2023-12-20T05:13:14;97906.54;;;8.01
75811;BMP280;64449;50.016;19.954;2023-12-20T05:15:39;97906.77;;;8.01
75811;BMP280;64449;50.016;19.954;2023-12-20T05:18:05;97909.38;;;8.02
75811;BMP280;64449;50.016;19.954;2023-12-20T05:20:31;97911.84;;;8.02
75811;BMP280;64449;50.016;19.954;2023-12-20T05:22:56;97913.41;;;8.02
75811;BMP280;64449;50.016;19.954;2023-12-20T05:25:21;97916.89;;;8.01
75811;BMP280;64449;50.016;19.954;2023-12-20T05:27:47;97914.16;;;8.01
75811;BMP280;64449;50.016;19.954;2023-12-20T05:30:13;97911.05;;;8.00
75811;BMP280;64449;50.016;19.954;2023-12-20T05:32:39;97904.02;;;7.99
75811;BMP280;64449;50.016;19.954;2023-12-20T05:35:04;97902.89;;;7.98
75811;BMP280;64449;50.016;19.954;2023-12-20T05:37:30;97896.89;;;7.97
75811;BMP280;64449;50.016;19.954;2023-12-20T05:39:55;97889.73;;;7.96
75811;BMP280;64449;50.016;19.954;2023-12-20T05:42:21;97895.75;;;7.96
75811;BMP280;64449;50.016;19.954;2023-12-20T05:44:46;97899.37;;;7.93
75811;BMP280;64449;50.016;19.954;2023-12-20T05:47:11;97901.73;;;7.90
75811;BMP280;64449;50.016;19.954;2023-12-20T05:49:37;97900.96;;;7.87
75811;BMP280;64449;50.016;19.954;2023-12-20T05:52:02;97901.08;;;7.83
75811;BMP280;64449;50.016;19.954;2023-12-20T05:54:28;97902.45;;;7.81
75811;BMP280;64449;50.016;19.954;2023-12-20T05:56:53;97893.13;;;7.79
75811;BMP280;64449;50.016;19.954;2023-12-20T05:59:19;97891.09;;;7.77
75811;BMP280;64449;50.016;19.954;2023-12-20T06:01:44;97892.16;;;7.76
75811;BMP280;64449;50.016;19.954;2023-12-20T06:04:09;97894.53;;;7.73
75811;BMP280;64449;50.016;19.954;2023-12-20T06:06:40;97896.43;;;7.70
75811;BMP280;64449;50.016;19.954;2023-12-20T06:09:06;97900.05;;;7.68
75811;BMP280;64449;50.016;19.954;2023-12-20T06:11:31;97906.39;;;7.66
75811;BMP280;64449;50.016;19.954;2023-12-20T06:13:56;97909.21;;;7.64
75811;BMP280;64449;50.016;19.954;2023-12-20T06:16:22;97915.64;;;7.63
75811;BMP280;64449;50.016;19.954;2023-12-20T06:18:47;97910.61;;;7.63
75811;BMP280;64449;50.016;19.954;2023-12-20T06:21:13;97914.95;;;7.62
75811;BMP280;64449;50.016;19.954;2023-12-20T06:23:39;97918.75;;;7.60
75811;BMP280;64449;50.016;19.954;2023-12-20T06:26:05;97922.52;;;7.59
75811;BMP280;64449;50.016;19.954;2023-12-20T06:28:30;97919.23;;;7.57
75811;BMP280;64449;50.016;19.954;2023-12-20T06:30:56;97924.55;;;7.56
75811;BMP280;64449;50.016;19.954;2023-12-20T06:33:22;97925.73;;;7.53
75811;BMP280;64449;50.016;19.954;2023-12-20T06:35:48;97931.34;;;7.52
75811;BMP280;64449;50.016;19.954;2023-12-20T06:38:14;97928.96;;;7.50
75811;BMP280;64449;50.016;19.954;2023-12-20T06:40:39;97930.58;;;7.49
75811;BMP280;64449;50.016;19.954;2023-12-20T06:43:05;97925.44;;;7.48
75811;BMP280;64449;50.016;19.954;2023-12-20T06:45:32;97920.00;;;7.48
75811;BMP280;64449;50.016;19.954;2023-12-20T06:47:58;97918.82;;;7.48
75811;BMP280;64449;50.016;19.954;2023-12-20T06:50:23;97919.96;;;7.47
75811;BMP280;64449;50.016;19.954;2023-12-20T06:52:49;97920.30;;;7.46
75811;BMP280;64449;50.016;19.954;2023-12-20T06:55:15;97923.44;;;7.45
75811;BMP280;64449;50.016;19.954;2023-12-20T06:57:40;97918.68;;;7.43
75811;BMP280;64449;50.016;19.954;2023-12-20T07:00:06;97922.11;;;7.41
75811;BMP280;64449;50.016;19.954;2023-12-20T07:02:33;97926.35;;;7.39
75811;BMP280;64449;50.016;19.954;2023-12-20T07:04:59;97926.64;;;7.38
75811;BMP280;64449;50.016;19.954;2023-12-20T07:07:25;97932.70;;;7.38
75811;BMP280;64449;50.016;19.954;2023-12-20T07:09:51;97931.03;;;7.36
75811;BMP280;64449;50.016;19.954;2023-12-20T07:12:17;97928.41;;;7.34
75811;BMP280;64449;50.016;19.954;2023-12-20T07:14:45;97933.80;;;7.33
75811;BMP280;64449;50.016;19.954;2023-12-20T07:17:10;97941.25;;;7.32
75811;BMP280;64449;50.016;19.954;2023-12-20T07:19:39;97936.70;;;7.30
75811;BMP280;64449;50.016;19.954;2023-12-20T07:22:06;97938.86;;;7.27
75811;BMP280;64449;50.016;19.954;2023-12-20T07:24:32;97941.36;;;7.24
75811;BMP280;64449;50.016;19.954;2023-12-20T07:26:59;97944.51;;;7.22
75811;BMP280;64449;50.016;19.954;2023-12-20T07:29:25;97941.88;;;7.19
75811;BMP280;64449;50.016;19.954;2023-12-20T07:31:50;97942.55;;;7.17
75811;BMP280;64449;50.016;19.954;2023-12-20T07:34:17;97949.25;;;7.16
75811;BMP280;64449;50.016;19.954;2023-12-20T07:36:43;97943.70;;;7.14
75811;BMP280;64449;50.016;19.954;2023-12-20T07:39:08;97946.79;;;7.13
75811;BMP280;64449;50.016;19.954;2023-12-20T07:41:33;97948.55;;;7.10
75811;BMP280;64449;50.016;19.954;2023-12-20T07:43:59;97956.80;;;7.09
75811;BMP280;64449;50.016;19.954;2023-12-20T07:46:24;97959.52;;;7.07
75811;BMP280;64449;50.016;19.954;2023-12-20T07:48:49;97960.90;;;7.05
75811;BMP280;64449;50.016;19.954;2023-12-20T07:51:15;97959.15;;;7.04
75811;BMP280;64449;50.016;19.954;2023-12-20T07:53:41;97958.92;;;7.03
75811;BMP280;64449;50.016;19.954;2023-12-20T07:56:14;97956.73;;;7.04
75811;BMP280;64449;50.016;19.954;2023-12-20T07:58:40;97960.92;;;7.04
75811;BMP280;64449;50.016;19.954;2023-12-20T08:01:05;97957.60;;;7.03
75811;BMP280;64449;50.016;19.954;2023-12-20T08:03:30;97960.63;;;7.02
75811;BMP280;64449;50.016;19.954;2023-12-20T08:05:56;97958.89;;;7.01
75811;BMP280;64449;50.016;19.954;2023-12-20T08:08:24;97965.29;;;7.00
75811;BMP280;64449;50.016;19.954;2023-12-20T08:10:50;97963.12;;;7.00
75811;BMP280;64449;50.016;19.954;2023-12-20T08:13:15;97959.63;;;7.01
75811;BMP280;64449;50.016;19.954;2023-12-20T08:15:41;97952.17;;;7.02
75811;BMP280;64449;50.016;19.954;2023-12-20T08:18:06;97954.75;;;7.02
75811;BMP280;64449;50.016;19.954;2023-12-20T08:20:31;97950.02;;;7.02
75811;BMP280;64449;50.016;19.954;2023-12-20T08:22:57;97949.82;;;7.00
75811;BMP280;64449;50.016;19.954;2023-12-20T08:25:22;97953.81;;;7.00
75811;BMP280;64449;50.016;19.954;2023-12-20T08:27:48;97955.16;;;6.99
75811;BMP280;64449;50.016;19.954;2023-12-20T08:30:13;97958.20;;;6.98
75811;BMP280;64449;50.016;19.954;2023-12-20T08:32:39;97955.00;;;6.97
75811;BMP280;64449;50.016;19.954;2023-12-20T08:35:04;97953.96;;;6.96
75811;BMP280;64449;50.016;19.954;2023-12-20T08:37:31;97955.55;;;6.96
75811;BMP280;64449;50.016;19.954;2023-12-20T08:39:56;97957.21;;;6.93
75811;BMP280;64449;50.016;19.954;2023-12-20T08:42:21;97955.69;;;6.91
75811;BMP280;64449;50.016;19.954;2023-12-20T08:44:47;97956.77;;;6.90
75811;BMP280;64449;50.016;19.954;2023-12-20T08:47:12;97955.09;;;6.90
75811;BMP280;64449;50.016;19.954;2023-12-20T08:49:41;97956.91;;;6.92
75811;BMP280;64449;50.016;19.954;2023-12-20T08:52:06;97954.85;;;6.94
75811;BMP280;64449;50.016;19.954;2023-12-20T08:54:31;97965.20;;;6.93
75811;BMP280;64449;50.016;19.954;2023-12-20T08:56:57;97967.56;;;6.91
75811;BMP280;64449;50.016;19.954;2023-12-20T08:59:22;97966.78;;;6.90
75811;BMP280;64449;50.016;19.954;2023-12-20T09:01:47;97958.41;;;6.90
75811;BMP280;64449;50.016;19.954;2023-12-20T09:04:19;97959.41;;;6.90
75811;BMP280;64449;50.016;19.954;2023-12-20T09:06:45;97967.11;;;6.91
75811;BMP280;64449;50.016;19.954;2023-12-20T09:09:10;97967.18;;;6.92
75811;BMP280;64449;50.016;19.954;2023-12-20T09:11:39;97969.23;;;6.91
75811;BMP280;64449;50.016;19.954;2023-12-20T09:14:04;97974.73;;;6.90
75811;BMP280;64449;50.016;19.954;2023-12-20T09:16:29;97970.36;;;6.89
75811;BMP280;64449;50.016;19.954;2023-12-20T09:18:56;97969.85;;;6.88
75811;BMP280;64449;50.016;19.954;2023-12-20T09:21:22;97963.08;;;6.88
75811;BMP280;64449;50.016;19.954;2023-12-20T09:23:48;97962.54;;;6.89
75811;BMP280;64449;50.016;19.954;2023-12-20T09:26:13;97959.64;;;6.90
75811;BMP280;64449;50.016;19.954;2023-12-20T09:28:39;97971.80;;;6.90
75811;BMP280;64449;50.016;19.954;2023-12-20T09:31:05;97966.28;;;6.88
75811;BMP280;64449;50.016;19.954;2023-12-20T09:33:32;97964.48;;;6.87
75811;BMP280;64449;50.016;19.954;2023-12-20T09:35:58;97960.80;;;6.86
75811;BMP280;64449;50.016;19.954;2023-12-20T09:38:23;97959.99;;;6.86
75811;BMP280;64449;50.016;19.954;2023-12-20T09:40:49;97954.66;;;6.86
75811;BMP280;64449;50.016;19.954;2023-12-20T09:43:15;97952.83;;;6.86
75811;BMP280;64449;50.016;19.954;2023-12-20T09:45:46;97952.23;;;6.86
75811;BMP280;64449;50.016;19.954;2023-12-20T09:48:12;97945.59;;;6.86
75811;BMP280;64449;50.016;19.954;2023-12-20T09:50:40;97944.54;;;6.85
75811;BMP280;64449;50.016;19.954;2023-12-20T09:53:08;97940.80;;;6.85
75811;BMP280;64449;50.016;19.954;2023-12-20T09:55:35;97939.39;;;6.85
75811;BMP280;64449;50.016;19.954;2023-12-20T09:58:01;97937.88;;;6.84
75811;BMP280;64449;50.016;19.954;2023-12-20T10:00:27;97934.58;;;6.84
75811;BMP280;64449;50.016;19.954;2023-12-20T10:03:00;97931.91;;;6.84
75811;BMP280;64449;50.016;19.954;2023-12-20T10:05:32;97930.77;;;6.84
75811;BMP280;64449;50.016;19.954;2023-12-20T10:07:59;97926.46;;;6.84
75811;BMP280;64449;50.016;19.954;2023-12-20T10:10:25;97927.40;;;6.83
75811;BMP280;64449;50.016;19.954;2023-12-20T10:13:09;97923.13;;;6.82
75811;BMP280;64449;50.016;19.954;2023-12-20T10:15:35;97922.50;;;6.80
75811;BMP280;64449;50.016;19.954;2023-12-20T10:18:02;97924.58;;;6.78
75811;BMP280;64449;50.016;19.954;2023-12-20T10:20:29;97923.62;;;6.76
75811;BMP280;64449;50.016;19.954;2023-12-20T10:22:55;97924.18;;;6.74
75811;BMP280;64449;50.016;19.954;2023-12-20T10:25:21;97928.52;;;6.73
75811;BMP280;64449;50.016;19.954;2023-12-20T10:27:47;97927.60;;;6.72
75811;BMP280;64449;50.016;19.954;2023-12-20T10:30:16;97932.63;;;6.71
75811;BMP280;64449;50.016;19.954;2023-12-20T10:32:41;97931.27;;;6.67
75811;BMP280;64449;50.016;19.954;2023-12-20T10:35:08;97928.65;;;6.64
75811;BMP280;64449;50.016;19.954;2023-12-20T10:37:36;97927.45;;;6.62
75811;BMP280;64449;50.016;19.954;2023-12-20T10:40:03;97927.54;;;6.60
75811;BMP280;64449;50.016;19.954;2023-12-20T10:42:29;97928.20;;;6.58
75811;BMP280;64449;50.016;19.954;2023-12-20T10:44:56;97924.61;;;6.57
75811;BMP280;64449;50.016;19.954;2023-12-20T10:47:22;97926.79;;;6.54
75811;BMP280;64449;50.016;19.954;2023-12-20T10:49:52;97926.20;;;6.51
75811;BMP280;64449;50.016;19.954;2023-12-20T10:52:17;97918.26;;;6.49
75811;BMP280;64449;50.016;19.954;2023-12-20T10:54:44;97916.39;;;6.50
75811;BMP280;64449;50.016;19.954;2023-12-20T10:57:10;97910.66;;;6.49
75811;BMP280;64449;50.016;19.954;2023-12-20T10:59:37;97908.14;;;6.47
75811;BMP280;64449;50.016;19.954;2023-12-20T11:02:04;97905.97;;;6.46
75811;BMP280;64449;50.016;19.954;2023-12-20T11:07:55;97906.73;;;6.44
75811;BMP280;64449;50.016;19.954;2023-12-20T11:10:57;97909.96;;;6.41
75811;BMP280;64449;50.016;19.954;2023-12-20T11:13:25;97915.34;;;6.40
75811;BMP280;64449;50.016;19.954;2023-12-20T11:15:52;97911.70;;;6.37
75811;BMP280;64449;50.016;19.954;2023-12-20T11:18:18;97912.70;;;6.35
75811;BMP280;64449;50.016;19.954;2023-12-20T11:20:43;97914.49;;;6.36
75811;BMP280;64449;50.016;19.954;2023-12-20T11:23:09;97910.88;;;6.37
75811;BMP280;64449;50.016;19.954;2023-12-20T11:25:55;97914.45;;;6.37
75811;BMP280;64449;50.016;19.954;2023-12-20T11:28:23;97918.20;;;6.39
75811;BMP280;64449;50.016;19.954;2023-12-20T11:30:52;97919.06;;;6.41
75811;BMP280;64449;50.016;19.954;2023-12-20T11:33:26;97921.16;;;6.42
75811;BMP280;64449;50.016;19.954;2023-12-20T11:35:51;97920.41;;;6.42
75811;BMP280;64449;50.016;19.954;2023-12-20T11:38:20;97917.25;;;6.43
75811;BMP280;64449;50.016;19.954;2023-12-20T11:40:48;97916.90;;;6.43
75811;BMP280;64449;50.016;19.954;2023-12-20T11:43:29;97916.52;;;6.43
75811;BMP280;64449;50.016;19.954;2023-12-20T11:45:55;97915.70;;;6.44
75811;BMP280;64449;50.016;19.954;2023-12-20T11:48:21;97915.36;;;6.45
75811;BMP280;64449;50.016;19.954;2023-12-20T11:50:46;97910.27;;;6.47
75811;BMP280;64449;50.016;19.954;2023-12-20T11:53:12;97906.52;;;6.47
75811;BMP280;64449;50.016;19.954;2023-12-20T11:55:37;97904.38;;;6.47
75811;BMP280;64449;50.016;19.954;2023-12-20T11:58:03;97909.73;;;6.47
75811;BMP280;64449;50.016;19.954;2023-12-20T12:00:28;97906.98;;;6.47
75811;BMP280;64449;50.016;19.954;2023-12-20T12:02:58;97912.55;;;6.46
75811;BMP280;64449;50.016;19.954;2023-12-20T12:05:24;97918.17;;;6.45
75811;BMP280;64449;50.016;19.954;2023-12-20T12:07:49;97906.89;;;6.44
75811;BMP280;64449;50.016;19.954;2023-12-20T12:10:15;97914.69;;;6.44
75811;BMP280;64449;50.016;19.954;2023-12-20T12:12:40;97909.36;;;6.44
75811;BMP280;64449;50.016;19.954;2023-12-20T12:15:06;97911.34;;;6.45
75811;BMP280;64449;50.016;19.954;2023-12-20T12:17:33;97915.52;;;6.45
75811;BMP280;64449;50.016;19.954;2023-12-20T12:20:05;97910.08;;;6.43
75811;BMP280;64449;50.016;19.954;2023-12-20T12:22:30;97907.35;;;6.42
75811;BMP280;64449;50.016;19.954;2023-12-20T12:24:59;97907.49;;;6.42
75811;BMP280;64449;50.016;19.954;2023-12-20T12:27:24;97903.27;;;6.40
75811;BMP280;64449;50.016;19.954;2023-12-20T12:30:06;97896.19;;;6.41
75811;BMP280;64449;50.016;19.954;2023-12-20T12:32:32;97894.35;;;6.40
75811;BMP280;64449;50.016;19.954;2023-12-20T12:34:58;97895.33;;;6.40
75811;BMP280;64449;50.016;19.954;2023-12-20T12:37:23;97885.76;;;6.41
75811;BMP280;64449;50.016;19.954;2023-12-20T12:39:49;97887.02;;;6.41
75811;BMP280;64449;50.016;19.954;2023-12-20T12:42:15;97886.08;;;6.41
75811;BMP280;64449;50.016;19.954;2023-12-20T12:44:40;97889.38;;;6.40
75811;BMP280;64449;50.016;19.954;2023-12-20T12:47:06;97888.05;;;6.39
75811;BMP280;64449;50.016;19.954;2023-12-20T12:49:32;97895.63;;;6.39
75811;BMP280;64449;50.016;19.954;2023-12-20T12:51:57;97891.17;;;6.38
75811;BMP280;64449;50.016;19.954;2023-12-20T12:54:24;97892.64;;;6.37
75811;BMP280;64449;50.016;19.954;2023-12-20T12:56:49;97892.70;;;6.37
75811;BMP280;64449;50.016;19.954;2023-12-20T12:59:16;97890.63;;;6.38
75811;BMP280;64449;50.016;19.954;2023-12-20T13:01:41;97896.80;;;6.41
75811;BMP280;64449;50.016;19.954;2023-12-20T13:04:07;97894.60;;;6.43
75811;BMP280;64449;50.016;19.954;2023-12-20T13:06:38;97895.66;;;6.44
75811;BMP280;64449;50.016;19.954;2023-12-20T13:09:06;97893.30;;;6.46
75811;BMP280;64449;50.016;19.954;2023-12-20T13:11:31;97883.85;;;6.50
75811;BMP280;64449;50.016;19.954;2023-12-20T13:13:57;97874.60;;;6.51
75811;BMP280;64449;50.016;19.954;2023-12-20T13:16:26;97886.58;;;6.50
75811;BMP280;64449;50.016;19.954;2023-12-20T13:18:52;97891.77;;;6.48
75811;BMP280;64449;50.016;19.954;2023-12-20T13:21:17;97892.98;;;6.47
75811;BMP280;64449;50.016;19.954;2023-12-20T13:23:42;97885.98;;;6.45
75811;BMP280;64449;50.016;19.954;2023-12-20T13:26:08;97892.80;;;6.43
75811;BMP280;64449;50.016;19.954;2023-12-20T13:28:34;97892.13;;;6.43
75811;BMP280;64449;50.016;19.954;2023-12-20T13:30:59;97899.05;;;6.43
75811;BMP280;64449;50.016;19.954;2023-12-20T13:33:25;97901.48;;;6.44
75811;BMP280;64449;50.016;19.954;2023-12-20T13:35:51;97907.34;;;6.46
75811;BMP280;64449;50.016;19.954;2023-12-20T13:38:17;97909.60;;;6.47
75811;BMP280;64449;50.016;19.954;2023-12-20T13:40:42;97905.34;;;6.48
75811;BMP280;64449;50.016;19.954;2023-12-20T13:43:08;97902.80;;;6.48
75811;BMP280;64449;50.016;19.954;2023-12-20T13:45:33;97901.75;;;6.49
75811;BMP280;64449;50.016;19.954;2023-12-20T13:47:59;97902.00;;;6.50
75811;BMP280;64449;50.016;19.954;2023-12-20T13:50:24;97911.02;;;6.50
75811;BMP280;64449;50.016;19.954;2023-12-20T13:52:50;97908.70;;;6.50
75811;BMP280;64449;50.016;19.954;2023-12-20T13:55:15;97909.95;;;6.49
75811;BMP280;64449;50.016;19.954;2023-12-20T13:57:40;97906.89;;;6.49
75811;BMP280;64449;50.016;19.954;2023-12-20T14:00:07;97907.09;;;6.48
75811;BMP280;64449;50.016;19.954;2023-12-20T14:02:40;97902.30;;;6.48
75811;BMP280;64449;50.016;19.954;2023-12-20T14:05:06;97899.15;;;6.47
75811;BMP280;64449;50.016;19.954;2023-12-20T14:07:31;97901.92;;;6.46